createdAt,value
2024-02-15T00:02:17.431Z,2.94
2024-02-15T00:04:45.058Z,2.97
2024-02-15T00:07:13.034Z,2.98
2024-02-15T00:09:40.630Z,2.97
2024-02-15T00:12:10.325Z,2.98
2024-02-15T00:14:39.940Z,2.99
2024-02-15T00:17:08.289Z,2.98
2024-02-15T00:19:35.842Z,2.97
2024-02-15T00:22:03.806Z,2.96
2024-02-15T00:24:32.138Z,2.96
2024-02-15T00:26:59.703Z,2.96
2024-02-15T00:29:30.160Z,2.95
2024-02-15T00:31:57.747Z,2.92
2024-02-15T00:34:27.910Z,2.91
2024-02-15T00:36:55.645Z,2.90
2024-02-15T00:39:23.498Z,2.89
2024-02-15T00:41:50.989Z,2.87
2024-02-15T00:44:19.423Z,2.86
2024-02-15T00:46:48.909Z,2.86
2024-02-15T00:49:16.784Z,2.86
2024-02-15T00:51:44.329Z,2.87
2024-02-15T00:54:11.948Z,2.88
2024-02-15T00:56:39.503Z,2.89
2024-02-15T00:59:07.257Z,2.90
2024-02-15T01:01:34.678Z,2.91
2024-02-15T01:04:01.935Z,2.92
2024-02-15T01:06:30.421Z,2.93
2024-02-15T01:08:58.712Z,2.92
2024-02-15T01:11:26.929Z,2.91
2024-02-15T01:13:54.418Z,2.92
2024-02-15T01:16:22.802Z,2.93
2024-02-15T01:18:50.393Z,2.93
2024-02-15T01:21:17.889Z,2.93
2024-02-15T01:23:45.306Z,2.91
2024-02-15T01:26:15.665Z,2.93
2024-02-15T01:28:46.136Z,2.93
2024-02-15T01:31:13.913Z,2.93
2024-02-15T01:33:41.328Z,2.89
2024-02-15T01:36:09.553Z,2.86
2024-02-15T01:38:39.377Z,2.85
2024-02-15T01:41:07.172Z,2.86
2024-02-15T01:43:34.536Z,2.84
2024-02-15T01:46:05.251Z,2.83
2024-02-15T01:48:35.332Z,2.84
2024-02-15T01:53:33.614Z,2.79
2024-02-15T01:56:01.145Z,2.78
2024-02-15T01:58:29.903Z,2.77
2024-02-15T02:00:59.426Z,2.74
2024-02-15T02:03:26.882Z,2.74
2024-02-15T02:05:55.016Z,2.73
2024-02-15T02:08:23.542Z,2.69
2024-02-15T02:10:51.486Z,2.66
2024-02-15T02:13:19.290Z,2.64
2024-02-15T02:15:46.963Z,2.65
2024-02-15T02:18:14.522Z,2.65
2024-02-15T02:20:42.898Z,2.67
2024-02-15T02:23:17.587Z,2.68
2024-02-15T02:25:45.722Z,2.66
2024-02-15T02:28:13.122Z,2.64
2024-02-15T02:30:43.130Z,2.65
2024-02-15T02:33:20.993Z,2.69
2024-02-15T02:35:49.779Z,2.70
2024-02-15T02:38:17.589Z,2.72
2024-02-15T02:40:47.720Z,2.73
2024-02-15T02:43:14.982Z,2.74
2024-02-15T02:45:44.374Z,2.71
2024-02-15T02:48:11.965Z,2.70
2024-02-15T02:50:39.383Z,2.72
2024-02-15T02:53:06.743Z,2.71
2024-02-15T02:55:34.138Z,2.69
2024-02-15T02:58:01.506Z,2.68
2024-02-15T03:00:29.186Z,2.65
2024-02-15T03:02:58.141Z,2.62
2024-02-15T03:05:25.835Z,2.61
2024-02-15T03:07:53.277Z,2.60
2024-02-15T03:10:20.702Z,2.61
2024-02-15T03:12:49.227Z,2.62
2024-02-15T03:15:18.098Z,2.62
2024-02-15T03:17:47.222Z,2.60
2024-02-15T03:20:25.840Z,2.59
2024-02-15T03:22:59.991Z,2.59
2024-02-15T03:25:30.013Z,2.62
2024-02-15T03:27:58.801Z,2.62
2024-02-15T03:30:27.354Z,2.60
2024-02-15T03:32:55.402Z,2.60
2024-02-15T03:35:24.119Z,2.62
2024-02-15T03:37:54.726Z,2.63
2024-02-15T03:40:23.210Z,2.64
2024-02-15T03:42:53.475Z,2.64
2024-02-15T03:45:21.547Z,2.63
2024-02-15T03:47:51.502Z,2.62
2024-02-15T03:50:20.223Z,2.61
2024-02-15T03:52:47.665Z,2.59
2024-02-15T03:55:15.354Z,2.61
2024-02-15T03:57:44.928Z,2.63
2024-02-15T04:00:14.761Z,2.63
2024-02-15T04:02:42.874Z,2.61
2024-02-15T04:05:11.319Z,2.59
2024-02-15T04:07:39.005Z,2.54
2024-02-15T04:10:07.485Z,2.52
2024-02-15T04:14:10.207Z,2.56
2024-02-15T04:16:39.346Z,2.55
2024-02-15T04:19:06.903Z,2.55
2024-02-15T04:21:34.286Z,2.54
2024-02-15T04:24:01.679Z,2.52
2024-02-15T04:26:31.181Z,2.50
2024-02-15T04:28:59.538Z,2.50
2024-02-15T04:31:29.779Z,2.49
2024-02-15T04:33:58.054Z,2.50
2024-02-15T04:36:26.151Z,2.53
2024-02-15T04:38:53.595Z,2.56
2024-02-15T04:41:24.220Z,2.58
2024-02-15T04:43:51.775Z,2.59
2024-02-15T04:46:22.623Z,2.61
2024-02-15T04:48:53.075Z,2.61
2024-02-15T04:51:21.009Z,2.58
2024-02-15T04:53:49.202Z,2.57
2024-02-15T04:56:17.387Z,2.57
2024-02-15T04:58:48.824Z,2.59
2024-02-15T05:01:19.313Z,2.60
2024-02-15T05:03:46.867Z,2.60
2024-02-15T05:06:15.054Z,2.58
2024-02-15T05:08:45.395Z,2.57
2024-02-15T05:11:23.687Z,2.57
2024-02-15T05:13:53.863Z,2.56
2024-02-15T05:16:21.187Z,2.53
2024-02-15T05:18:48.645Z,2.51
2024-02-15T05:21:16.823Z,2.50
2024-02-15T05:23:45.570Z,2.50
2024-02-15T05:26:13.782Z,2.49
2024-02-15T05:28:41.115Z,2.48
2024-02-15T05:31:13.088Z,2.48
2024-02-15T05:33:45.480Z,2.50
2024-02-15T05:36:13.306Z,2.53
2024-02-15T05:38:41.341Z,2.55
2024-02-15T05:41:09.132Z,2.55
2024-02-15T05:43:39.691Z,2.56
2024-02-15T05:46:10.053Z,2.55
2024-02-15T05:48:38.266Z,2.52
2024-02-15T05:51:06.857Z,2.51
2024-02-15T05:53:37.035Z,2.50
2024-02-15T05:56:05.820Z,2.49
2024-02-15T05:58:33.566Z,2.46
2024-02-15T06:01:02.904Z,2.43
2024-02-15T06:03:30.377Z,2.43
2024-02-15T06:05:59.702Z,2.44
2024-02-15T06:08:27.357Z,2.44
2024-02-15T06:10:54.639Z,2.45
2024-02-15T06:13:22.919Z,2.45
2024-02-15T06:15:54.975Z,2.48
2024-02-15T06:18:28.835Z,2.52
2024-02-15T06:21:00.765Z,2.52
2024-02-15T06:23:28.923Z,2.50
2024-02-15T06:26:02.000Z,2.47
2024-02-15T06:28:48.491Z,2.50
2024-02-15T06:31:34.640Z,2.51
2024-02-15T06:34:20.985Z,2.54
2024-02-15T06:37:11.890Z,2.57
2024-02-15T06:39:39.959Z,2.61
2024-02-15T06:42:08.364Z,2.64
2024-02-15T06:44:36.454Z,2.65
2024-02-15T06:47:04.061Z,2.66
2024-02-15T06:49:31.473Z,2.65
2024-02-15T06:52:00.214Z,2.65
2024-02-15T06:54:27.650Z,2.64
2024-02-15T06:56:55.744Z,2.61
2024-02-15T06:59:23.650Z,2.60
2024-02-15T07:01:53.483Z,2.61
2024-02-15T07:04:21.823Z,2.62
2024-02-15T07:06:50.768Z,2.63
2024-02-15T07:09:20.593Z,2.63
2024-02-15T07:11:51.520Z,2.62
2024-02-15T07:14:19.291Z,2.60
2024-02-15T07:16:47.209Z,2.59
2024-02-15T07:19:15.279Z,2.58
2024-02-15T07:21:43.425Z,2.58
2024-02-15T07:24:14.687Z,2.59
2024-02-15T07:26:41.991Z,2.60
2024-02-15T07:29:09.742Z,2.60
2024-02-15T07:31:37.211Z,2.59
2024-02-15T07:34:05.067Z,2.59
2024-02-15T07:36:33.281Z,2.60
2024-02-15T07:39:02.883Z,2.63
2024-02-15T07:41:32.215Z,2.63
2024-02-15T07:43:59.966Z,2.62
2024-02-15T07:46:27.221Z,2.62
2024-02-15T07:48:54.700Z,2.62
2024-02-15T07:51:23.171Z,2.64
2024-02-15T07:53:50.618Z,2.65
2024-02-15T07:56:18.378Z,2.67
2024-02-15T07:58:52.649Z,2.69
2024-02-15T08:01:25.578Z,2.70
2024-02-15T08:03:55.022Z,2.69
2024-02-15T08:06:26.813Z,2.67
2024-02-15T08:08:54.565Z,2.66
2024-02-15T08:11:22.021Z,2.64
2024-02-15T08:13:55.582Z,2.63
2024-02-15T08:16:24.221Z,2.62
2024-02-15T08:18:56.685Z,2.62
2024-02-15T08:21:28.468Z,2.66
2024-02-15T08:23:56.609Z,2.69
2024-02-15T08:26:24.027Z,2.73
2024-02-15T08:28:51.723Z,2.73
2024-02-15T08:31:20.574Z,2.73
2024-02-15T08:33:48.101Z,2.73
2024-02-15T08:36:15.674Z,2.73
2024-02-15T08:38:43.177Z,2.75
2024-02-15T08:41:12.652Z,2.76
2024-02-15T08:43:42.358Z,2.77
2024-02-15T08:46:09.759Z,2.78
2024-02-15T08:48:37.290Z,2.78
2024-02-15T08:51:07.220Z,2.79
2024-02-15T08:53:34.696Z,2.79
2024-02-15T08:56:02.723Z,2.79
2024-02-15T08:58:31.263Z,2.78
2024-02-15T09:00:59.574Z,2.77
2024-02-15T09:03:27.025Z,2.77
2024-02-15T09:05:56.101Z,2.78
2024-02-15T09:08:24.304Z,2.81
2024-02-15T09:10:53.813Z,2.85
2024-02-15T09:13:21.390Z,2.88
2024-02-15T09:15:48.809Z,2.90
2024-02-15T09:18:16.317Z,2.91
2024-02-15T09:20:46.453Z,2.93
2024-02-15T09:23:15.848Z,2.95
2024-02-15T09:25:46.133Z,2.97
2024-02-15T09:28:15.176Z,2.96
2024-02-15T09:30:42.761Z,2.94
2024-02-15T09:33:10.662Z,2.92
2024-02-15T09:35:39.964Z,2.91
2024-02-15T09:38:07.458Z,2.92
2024-02-15T09:40:35.936Z,2.92
2024-02-15T09:43:03.344Z,2.91
2024-02-15T09:45:31.344Z,2.91
2024-02-15T09:47:59.478Z,2.95
2024-02-15T09:50:26.912Z,2.97
2024-02-15T09:52:57.656Z,2.99
2024-02-15T09:55:25.145Z,3.04
2024-02-15T09:57:52.615Z,3.10
2024-02-15T10:00:21.039Z,3.16
2024-02-15T10:02:49.417Z,3.19
2024-02-15T10:05:18.561Z,3.19
2024-02-15T10:07:46.705Z,3.19
2024-02-15T10:10:22.045Z,3.20
2024-02-15T10:12:57.106Z,3.21
2024-02-15T10:15:42.102Z,3.21
2024-02-15T10:18:11.803Z,3.20
2024-02-15T10:20:46.443Z,3.20
2024-02-15T10:23:14.690Z,3.19
2024-02-15T10:25:42.488Z,3.20
2024-02-15T10:28:11.494Z,3.22
2024-02-15T10:30:50.969Z,3.26
2024-02-15T10:33:31.275Z,3.31
2024-02-15T10:36:14.797Z,3.33
2024-02-15T10:38:43.080Z,3.33
2024-02-15T10:41:12.169Z,3.35
2024-02-15T10:43:39.710Z,3.37
2024-02-15T10:46:11.141Z,3.41
2024-02-15T10:48:39.741Z,3.44
2024-02-15T10:51:10.875Z,3.46
2024-02-15T10:53:38.728Z,3.48
2024-02-15T10:56:12.349Z,3.49
2024-02-15T10:58:47.925Z,3.51
2024-02-15T11:01:19.166Z,3.49
2024-02-15T11:03:53.876Z,3.47
2024-02-15T11:06:22.662Z,3.46
2024-02-15T11:08:50.267Z,3.47
2024-02-15T11:11:19.358Z,3.48
2024-02-15T11:13:50.283Z,3.50
2024-02-15T11:16:43.519Z,3.50
2024-02-15T11:19:11.968Z,3.53
2024-02-15T11:21:58.034Z,3.54
2024-02-15T11:24:37.492Z,3.55
2024-02-15T11:27:06.088Z,3.55
2024-02-15T11:29:57.539Z,3.53
2024-02-15T11:32:40.765Z,3.50
2024-02-15T11:35:16.159Z,3.44
2024-02-15T11:37:50.450Z,3.40
2024-02-15T11:40:24.804Z,3.39
2024-02-15T11:43:02.128Z,3.38
2024-02-15T11:45:42.320Z,3.40
2024-02-15T11:48:14.639Z,3.40
2024-02-15T11:50:42.863Z,3.42
2024-02-15T11:53:11.616Z,3.42
2024-02-15T11:55:40.980Z,3.42
2024-02-15T11:58:12.275Z,3.42
2024-02-15T12:00:58.959Z,3.43
2024-02-15T12:06:37.979Z,3.38
2024-02-15T12:09:24.343Z,3.35
2024-02-15T12:12:17.796Z,3.35
2024-02-15T12:15:04.565Z,3.36
2024-02-15T12:17:50.852Z,3.37
2024-02-15T12:20:26.496Z,3.36
2024-02-15T12:22:54.581Z,3.35
2024-02-15T12:25:22.766Z,3.37
2024-02-15T12:27:54.859Z,3.39
2024-02-15T12:30:22.918Z,3.38
2024-02-15T12:32:51.542Z,3.38
2024-02-15T12:35:25.126Z,3.37
2024-02-15T12:38:09.815Z,3.34
2024-02-15T12:40:38.168Z,3.31
2024-02-15T12:43:13.147Z,3.28
2024-02-15T12:45:42.210Z,3.26
2024-02-15T12:48:10.261Z,3.26
2024-02-15T12:50:37.848Z,3.27
2024-02-15T12:53:07.376Z,3.30
2024-02-15T12:55:39.318Z,3.34
2024-02-15T12:58:10.133Z,3.40
2024-02-15T13:00:40.399Z,3.45
2024-02-15T13:03:12.676Z,3.48
2024-02-15T13:05:41.405Z,3.48
2024-02-15T13:08:15.660Z,3.48
2024-02-15T13:10:43.871Z,3.49
2024-02-15T13:13:11.617Z,3.49
2024-02-15T13:15:39.713Z,3.42
2024-02-15T13:18:11.449Z,3.37
2024-02-15T13:20:39.760Z,3.34
2024-02-15T13:23:20.746Z,3.30
2024-02-15T13:25:49.700Z,3.26
2024-02-15T13:28:16.996Z,3.25
2024-02-15T13:30:46.252Z,3.28
2024-02-15T13:33:15.079Z,3.31
2024-02-15T13:35:43.059Z,3.34
2024-02-15T13:38:16.028Z,3.37
2024-02-15T13:40:46.512Z,3.40
2024-02-15T13:43:13.954Z,3.43
2024-02-15T13:45:42.394Z,3.47
2024-02-15T13:48:12.352Z,3.49
2024-02-15T13:50:41.022Z,3.50
2024-02-15T13:53:11.080Z,3.52
2024-02-15T13:55:39.262Z,3.51
2024-02-15T13:58:09.205Z,3.48
2024-02-15T14:00:38.789Z,3.46
2024-02-15T14:03:07.891Z,3.45
2024-02-15T14:05:35.669Z,3.44
2024-02-15T14:08:06.882Z,3.41
2024-02-15T14:10:36.380Z,3.38
2024-02-15T14:13:04.861Z,3.35
2024-02-15T14:15:35.623Z,3.35
2024-02-15T14:18:03.139Z,3.35
2024-02-15T14:20:30.630Z,3.36
2024-02-15T14:22:58.356Z,3.36
2024-02-15T14:25:32.319Z,3.35
2024-02-15T14:27:59.770Z,3.33
2024-02-15T14:30:46.164Z,3.33
2024-02-15T14:35:47.525Z,3.30
2024-02-15T14:38:16.949Z,3.29
2024-02-15T14:40:55.284Z,3.29
2024-02-15T14:43:25.517Z,3.28
2024-02-15T14:45:54.284Z,3.27
2024-02-15T14:48:22.620Z,3.27
2024-02-15T14:50:52.601Z,3.29
2024-02-15T14:53:20.474Z,3.31
2024-02-15T14:55:48.369Z,3.30
2024-02-15T14:58:18.695Z,3.31
2024-02-15T15:00:47.805Z,3.31
2024-02-15T15:03:17.279Z,3.31
2024-02-15T15:06:17.700Z,3.32
2024-02-15T15:09:04.103Z,3.29
2024-02-15T15:11:50.182Z,3.27
2024-02-15T15:14:18.420Z,3.28
2024-02-15T15:16:45.821Z,3.31
2024-02-15T15:19:13.284Z,3.33
2024-02-15T15:21:40.724Z,3.35
2024-02-15T15:24:08.149Z,3.35
2024-02-15T15:26:35.500Z,3.34
2024-02-15T15:29:02.760Z,3.33
2024-02-15T15:31:30.939Z,3.32
2024-02-15T15:33:58.690Z,3.32
2024-02-15T15:36:26.150Z,3.31
2024-02-15T15:38:53.864Z,3.30
2024-02-15T15:41:24.019Z,3.29
2024-02-15T15:43:52.013Z,3.24
2024-02-15T15:46:19.603Z,3.21
2024-02-15T15:48:47.946Z,3.20
2024-02-15T15:51:16.458Z,3.16
2024-02-15T15:53:46.634Z,3.11
2024-02-15T15:56:15.337Z,3.08
2024-02-15T15:58:46.260Z,3.07
2024-02-15T16:01:14.892Z,3.07
2024-02-15T16:03:42.630Z,3.07
2024-02-15T16:06:10.354Z,3.06
2024-02-15T16:08:38.397Z,3.02
2024-02-15T16:11:07.934Z,3.02
2024-02-15T16:13:35.911Z,3.02
2024-02-15T16:16:05.340Z,3.01
2024-02-15T16:18:33.320Z,3.03
2024-02-15T16:21:01.098Z,3.07
2024-02-15T16:23:28.565Z,3.09
2024-02-15T16:25:56.031Z,3.11
2024-02-15T16:31:19.379Z,3.16
2024-02-15T16:33:46.906Z,3.16
2024-02-15T16:36:15.353Z,3.17
2024-02-15T16:38:42.793Z,3.16
2024-02-15T16:41:10.212Z,3.14
2024-02-15T16:43:37.493Z,3.10
2024-02-15T16:46:05.893Z,3.08
2024-02-15T16:48:33.468Z,3.07
2024-02-15T16:51:03.415Z,3.06
2024-02-15T16:53:31.048Z,3.07
2024-02-15T16:55:58.413Z,3.09
2024-02-15T16:58:26.081Z,3.10
2024-02-15T17:00:53.419Z,3.09
2024-02-15T17:03:21.460Z,3.08
2024-02-15T17:05:48.794Z,3.09
2024-02-15T17:08:16.277Z,3.12
2024-02-15T17:10:43.650Z,3.13
2024-02-15T17:13:10.970Z,3.11
2024-02-15T17:15:38.316Z,3.08
2024-02-15T17:18:06.028Z,3.07
2024-02-15T17:20:34.228Z,3.04
2024-02-15T17:23:01.547Z,3.02
2024-02-15T17:25:28.897Z,3.01
2024-02-15T17:27:57.024Z,3.01
2024-02-15T17:30:25.172Z,3.03
2024-02-15T17:32:53.268Z,3.04
2024-02-15T17:35:22.051Z,3.06
2024-02-15T17:37:49.662Z,3.07
2024-02-15T17:40:19.189Z,3.07
2024-02-15T17:42:47.321Z,3.10
2024-02-15T17:45:15.630Z,3.12
2024-02-15T17:47:45.718Z,3.10
2024-02-15T17:50:21.278Z,3.08
2024-02-15T17:52:48.972Z,3.10
2024-02-15T17:55:17.036Z,3.11
2024-02-15T17:57:47.020Z,3.10
2024-02-15T18:00:17.575Z,3.09
2024-02-15T18:02:50.269Z,3.10
2024-02-15T18:05:19.689Z,3.10
2024-02-15T18:07:47.781Z,3.08
2024-02-15T18:10:18.075Z,3.08
2024-02-15T18:12:45.821Z,3.08
2024-02-15T18:15:24.876Z,3.08
2024-02-15T18:17:56.892Z,3.10
2024-02-15T18:20:25.498Z,3.13
2024-02-15T18:22:53.553Z,3.11
2024-02-15T18:25:21.163Z,3.11
2024-02-15T18:27:48.960Z,3.12
2024-02-15T18:30:20.152Z,3.14
2024-02-15T18:32:49.188Z,3.15
2024-02-15T18:35:18.352Z,3.17
2024-02-15T18:37:47.695Z,3.18
2024-02-15T18:40:22.909Z,3.19
2024-02-15T18:42:54.065Z,3.21
2024-02-15T18:45:22.084Z,3.21
2024-02-15T18:47:50.720Z,3.20
2024-02-15T18:50:21.378Z,3.20
2024-02-15T18:52:50.313Z,3.20
2024-02-15T18:55:17.724Z,3.18
2024-02-15T18:57:45.500Z,3.17
2024-02-15T19:00:24.015Z,3.18
2024-02-15T19:03:00.429Z,3.18
2024-02-15T19:05:29.863Z,3.18
2024-02-15T19:07:58.382Z,3.17
2024-02-15T19:10:25.897Z,3.15
2024-02-15T19:12:54.485Z,3.12
2024-02-15T19:15:22.403Z,3.10
2024-02-15T19:17:49.926Z,3.10
2024-02-15T19:20:17.317Z,3.11
2024-02-15T19:22:45.278Z,3.11
2024-02-15T19:25:19.402Z,3.11
2024-02-15T19:27:48.797Z,3.13
2024-02-15T19:30:17.909Z,3.13
2024-02-15T19:32:45.287Z,3.14
2024-02-15T19:35:12.770Z,3.13
2024-02-15T19:37:40.701Z,3.13
2024-02-15T19:40:12.387Z,3.14
2024-02-15T19:42:40.016Z,3.17
2024-02-15T19:45:07.811Z,3.19
2024-02-15T19:47:35.503Z,3.18
2024-02-15T19:50:04.465Z,3.17
2024-02-15T19:52:32.036Z,3.17
2024-02-15T19:54:59.670Z,3.17
2024-02-15T19:57:27.422Z,3.16
2024-02-15T19:59:55.284Z,3.16
2024-02-15T20:02:22.881Z,3.17
2024-02-15T20:04:50.844Z,3.17
2024-02-15T20:07:20.071Z,3.17
2024-02-15T20:09:50.634Z,3.16
2024-02-15T20:12:18.200Z,3.14
2024-02-15T20:14:45.539Z,3.13
2024-02-15T20:17:14.792Z,3.14
2024-02-15T20:19:42.298Z,3.13
2024-02-15T20:22:09.815Z,3.11
2024-02-15T20:24:39.608Z,3.11
2024-02-15T20:27:07.307Z,3.14
2024-02-15T20:29:36.724Z,3.15
2024-02-15T20:32:08.149Z,3.16
2024-02-15T20:34:35.528Z,3.16
2024-02-15T20:37:05.319Z,3.18
2024-02-15T20:39:33.162Z,3.18
2024-02-15T20:42:00.652Z,3.17
2024-02-15T20:44:27.992Z,3.17
2024-02-15T20:46:55.332Z,3.17
2024-02-15T20:49:23.231Z,3.18
2024-02-15T20:51:52.471Z,3.17
2024-02-15T20:54:19.813Z,3.17
2024-02-15T20:56:48.739Z,3.17
2024-02-15T20:59:17.193Z,3.18
2024-02-15T21:01:44.439Z,3.19
2024-02-15T21:04:12.211Z,3.21
2024-02-15T21:06:40.453Z,3.22
2024-02-15T21:09:15.285Z,3.24
2024-02-15T21:11:46.642Z,3.27
2024-02-15T21:14:17.082Z,3.29
2024-02-15T21:16:44.517Z,3.30
2024-02-15T21:19:12.672Z,3.30
2024-02-15T21:21:44.431Z,3.31
2024-02-15T21:24:12.904Z,3.31
2024-02-15T21:26:44.460Z,3.32
2024-02-15T21:29:16.481Z,3.33
2024-02-15T21:31:54.440Z,3.35
2024-02-15T21:34:22.595Z,3.37
2024-02-15T21:36:50.189Z,3.39
2024-02-15T21:39:17.646Z,3.41
2024-02-15T21:41:47.483Z,3.41
2024-02-15T21:44:15.815Z,3.41
2024-02-15T21:46:43.263Z,3.39
2024-02-15T21:49:11.100Z,3.38
2024-02-15T21:51:38.756Z,3.37
2024-02-15T21:54:06.198Z,3.36
2024-02-15T21:56:33.445Z,3.35
2024-02-15T21:59:01.001Z,3.35
2024-02-15T22:01:28.574Z,3.36
2024-02-15T22:03:56.141Z,3.37
2024-02-15T22:06:23.888Z,3.38
2024-02-15T22:08:51.588Z,3.38
2024-02-15T22:11:18.959Z,3.38
2024-02-15T22:13:46.202Z,3.39
2024-02-15T22:16:16.939Z,3.40
2024-02-15T22:18:46.246Z,3.40
2024-02-15T22:21:13.725Z,3.40
2024-02-15T22:23:41.369Z,3.42
2024-02-15T22:26:16.776Z,3.42
2024-02-15T22:28:44.164Z,3.42
2024-02-15T22:31:21.251Z,3.42
2024-02-15T22:33:48.775Z,3.42
2024-02-15T22:36:23.276Z,3.41
2024-02-15T22:38:51.136Z,3.41
2024-02-15T22:41:18.675Z,3.39
2024-02-15T22:43:46.069Z,3.37
2024-02-15T22:46:13.933Z,3.34
2024-02-15T22:48:43.564Z,3.33
2024-02-15T22:51:11.079Z,3.31
2024-02-15T22:53:47.610Z,3.30
2024-02-15T22:56:15.630Z,3.29
2024-02-15T22:58:43.633Z,3.28
2024-02-15T23:01:11.717Z,3.27
2024-02-15T23:03:40.593Z,3.26
2024-02-15T23:06:11.986Z,3.25
2024-02-15T23:08:39.972Z,3.25
2024-02-15T23:11:08.067Z,3.26
2024-02-15T23:13:39.039Z,3.26
2024-02-15T23:16:07.229Z,3.28
2024-02-15T23:18:34.798Z,3.30
2024-02-15T23:21:02.760Z,3.30
2024-02-15T23:23:30.136Z,3.30
2024-02-15T23:25:57.481Z,3.27
2024-02-15T23:28:24.764Z,3.22
2024-02-15T23:30:51.997Z,3.21
2024-02-15T23:33:23.470Z,3.22
2024-02-15T23:36:09.884Z,3.22
2024-02-15T23:38:56.617Z,3.23
2024-02-15T23:41:23.983Z,3.22
2024-02-15T23:43:51.295Z,3.21
2024-02-15T23:46:18.905Z,3.19
2024-02-15T23:48:47.354Z,3.19
2024-02-15T23:51:14.896Z,3.19
2024-02-15T23:53:42.312Z,3.19
2024-02-15T23:56:09.999Z,3.21
2024-02-15T23:58:37.380Z,3.24
